createdAt,value
2018-05-27T00:02:10.045Z,71.80
2018-05-27T00:04:37.805Z,71.60
2018-05-27T00:07:05.271Z,71.80
2018-05-27T00:09:32.738Z,71.60
2018-05-27T00:12:00.463Z,71.40
2018-05-27T00:14:27.935Z,72.30
2018-05-27T00:16:55.428Z,72.40
2018-05-27T00:19:23.119Z,71.90
2018-05-27T00:21:50.584Z,72.20
2018-05-27T00:24:18.056Z,72.40
2018-05-27T00:26:45.547Z,72.80
2018-05-27T00:29:13.006Z,72.70
2018-05-27T00:31:40.776Z,72.90
2018-05-27T00:34:08.538Z,72.70
2018-05-27T00:36:36.031Z,73.10
2018-05-27T00:39:03.506Z,73.40
2018-05-27T00:41:30.974Z,74.00
2018-05-27T00:43:58.446Z,73.70
2018-05-27T00:46:26.134Z,73.70
2018-05-27T00:48:53.908Z,73.70
2018-05-27T00:51:21.371Z,73.70
2018-05-27T00:53:59.720Z,74.60
2018-05-27T00:56:27.213Z,74.50
2018-05-27T00:58:54.666Z,74.40
2018-05-27T01:01:22.138Z,74.60
2018-05-27T01:03:49.607Z,74.50
2018-05-27T01:06:17.166Z,75.00
2018-05-27T01:08:44.625Z,75.10
2018-05-27T01:11:12.135Z,74.80
2018-05-27T01:13:39.775Z,75.40
2018-05-27T01:16:07.251Z,75.40
2018-05-27T01:18:34.770Z,75.60
2018-05-27T01:21:02.251Z,75.60
2018-05-27T01:23:29.970Z,76.50
2018-05-27T01:25:57.439Z,76.10
2018-05-27T01:28:25.216Z,76.10
2018-05-27T01:30:52.920Z,76.20
2018-05-27T01:33:20.393Z,76.60
2018-05-27T01:35:47.854Z,76.70
2018-05-27T01:38:15.354Z,76.80
2018-05-27T01:40:42.823Z,77.20
2018-05-27T01:43:10.503Z,77.20
2018-05-27T01:45:37.984Z,77.20
2018-05-27T01:48:05.462Z,77.30
2018-05-27T01:50:32.937Z,77.10
2018-05-27T01:53:00.406Z,77.50
2018-05-27T01:55:27.858Z,77.60
2018-05-27T01:57:55.327Z,77.50
2018-05-27T02:00:22.806Z,77.80
2018-05-27T02:02:50.488Z,77.90
2018-05-27T02:05:17.970Z,79.10
2018-05-27T02:07:45.539Z,79.20
2018-05-27T02:10:13.158Z,79.00
2018-05-27T02:12:40.690Z,79.10
2018-05-27T02:15:08.179Z,79.30
2018-05-27T02:17:35.914Z,79.50
2018-05-27T02:20:03.448Z,79.50
2018-05-27T02:22:31.128Z,79.50
2018-05-27T02:24:58.586Z,79.90
2018-05-27T02:27:26.075Z,79.90
2018-05-27T02:29:53.555Z,80.20
2018-05-27T02:32:21.060Z,80.30
2018-05-27T02:34:48.538Z,80.30
2018-05-27T02:37:16.783Z,81.00
2018-05-27T02:39:44.272Z,81.00
2018-05-27T02:42:11.760Z,81.20
2018-05-27T02:44:39.228Z,81.40
2018-05-27T02:47:06.871Z,81.60
2018-05-27T02:49:34.406Z,81.80
2018-05-27T02:52:01.870Z,83.10
2018-05-27T02:54:29.620Z,84.30
2018-05-27T02:56:58.622Z,85.50
2018-05-27T02:59:26.079Z,85.40
2018-05-27T03:01:53.570Z,85.60
2018-05-27T03:04:21.054Z,86.40
2018-05-27T03:06:48.524Z,86.70
2018-05-27T03:09:15.986Z,87.00
2018-05-27T03:11:43.467Z,86.70
2018-05-27T03:14:10.948Z,86.80
2018-05-27T03:16:39.204Z,86.90
2018-05-27T03:19:06.702Z,87.00
2018-05-27T03:21:34.231Z,87.40
2018-05-27T03:24:01.703Z,88.30
2018-05-27T03:26:29.976Z,89.50
2018-05-27T03:28:57.681Z,89.50
2018-05-27T03:31:25.220Z,90.00
2018-05-27T03:33:52.955Z,90.20
2018-05-27T03:36:20.471Z,90.10
2018-05-27T03:38:47.938Z,90.20
2018-05-27T03:41:15.427Z,90.30
2018-05-27T03:43:42.880Z,90.50
2018-05-27T03:46:10.345Z,90.30
2018-05-27T03:48:37.802Z,90.40
2018-05-27T03:51:05.267Z,90.90
2018-05-27T03:53:33.517Z,92.00
2018-05-27T03:56:00.992Z,91.90
2018-05-27T03:58:28.461Z,91.80
2018-05-27T04:00:56.039Z,91.50
2018-05-27T04:03:24.289Z,91.30
2018-05-27T04:06:03.692Z,91.30
2018-05-27T04:08:35.666Z,91.20
2018-05-27T04:11:03.130Z,91.20
2018-05-27T04:13:30.720Z,91.20
2018-05-27T04:15:58.259Z,91.30
2018-05-27T04:18:25.807Z,91.40
2018-05-27T04:20:53.298Z,91.50
2018-05-27T04:23:20.799Z,91.60
2018-05-27T04:25:48.328Z,91.60
2018-05-27T04:28:15.835Z,91.70
2018-05-27T04:30:43.285Z,91.70
2018-05-27T04:33:10.780Z,92.00
2018-05-27T04:35:38.383Z,92.10
2018-05-27T04:38:05.854Z,92.20
2018-05-27T04:40:33.332Z,92.50
2018-05-27T04:43:00.794Z,92.50
2018-05-27T04:45:28.318Z,92.70
2018-05-27T04:47:55.991Z,92.70
2018-05-27T04:50:23.527Z,92.80
2018-05-27T04:52:51.138Z,92.80
2018-05-27T04:55:18.894Z,92.90
2018-05-27T04:57:46.508Z,93.00
2018-05-27T05:00:13.962Z,93.00
2018-05-27T05:02:41.560Z,92.60
2018-05-27T05:05:09.040Z,92.70
2018-05-27T05:07:36.571Z,92.40
2018-05-27T05:10:04.087Z,92.30
2018-05-27T05:12:31.549Z,92.40
2018-05-27T05:14:59.116Z,92.30
2018-05-27T05:17:26.568Z,92.40
2018-05-27T05:19:54.106Z,92.50
2018-05-27T05:22:21.700Z,93.00
2018-05-27T05:24:49.166Z,92.40
2018-05-27T05:27:16.654Z,92.80
2018-05-27T05:29:44.114Z,93.10
2018-05-27T05:32:11.594Z,92.60
2018-05-27T05:34:39.054Z,92.20
2018-05-27T05:37:06.730Z,92.40
2018-05-27T05:39:35.722Z,92.30
2018-05-27T05:42:03.194Z,92.30
2018-05-27T05:44:30.726Z,92.20
2018-05-27T05:46:58.325Z,92.30
2018-05-27T05:49:25.788Z,92.30
2018-05-27T05:51:53.322Z,92.40
2018-05-27T05:54:20.791Z,92.20
2018-05-27T05:56:48.552Z,92.40
2018-05-27T05:59:16.047Z,92.40
2018-05-27T06:01:43.533Z,92.80
2018-05-27T06:04:11.227Z,92.70
2018-05-27T06:06:40.211Z,92.40
2018-05-27T06:09:07.675Z,92.40
2018-05-27T06:11:35.159Z,92.40
2018-05-27T06:14:02.848Z,92.30
2018-05-27T06:16:30.319Z,92.20
2018-05-27T06:18:57.791Z,92.40
2018-05-27T06:21:25.246Z,92.40
2018-05-27T06:23:52.730Z,92.60
2018-05-27T06:26:20.183Z,92.40
2018-05-27T06:28:47.642Z,92.50
2018-05-27T06:31:15.116Z,92.10
2018-05-27T06:33:42.644Z,92.40
2018-05-27T06:36:10.246Z,92.10
2018-05-27T06:38:37.922Z,91.90
2018-05-27T06:41:06.173Z,91.60
2018-05-27T06:43:33.943Z,91.60
2018-05-27T06:46:01.699Z,91.80
2018-05-27T06:48:29.166Z,91.70
2018-05-27T06:50:56.752Z,91.80
2018-05-27T06:53:25.302Z,90.90
2018-05-27T06:55:52.758Z,90.90
2018-05-27T06:58:20.218Z,90.60
2018-05-27T07:00:47.683Z,90.20
2018-05-27T07:03:15.141Z,89.60
2018-05-27T07:05:42.649Z,89.80
2018-05-27T07:08:10.278Z,88.60
2018-05-27T07:10:37.829Z,88.90
2018-05-27T07:13:06.803Z,88.00
2018-05-27T07:15:34.270Z,87.90
2018-05-27T07:18:01.739Z,87.50
2018-05-27T07:20:29.804Z,87.70
2018-05-27T07:22:57.264Z,87.70
2018-05-27T07:25:24.725Z,86.40
2018-05-27T07:27:52.836Z,86.00
2018-05-27T07:30:20.471Z,84.60
2018-05-27T07:32:48.021Z,84.90
2018-05-27T07:35:15.496Z,84.10
2018-05-27T07:37:42.955Z,83.30
2018-05-27T07:40:10.607Z,83.90
2018-05-27T07:42:38.307Z,83.90
2018-05-27T07:45:05.777Z,84.10
2018-05-27T07:47:33.242Z,84.10
2018-05-27T07:50:00.706Z,83.20
2018-05-27T07:52:28.297Z,82.00
2018-05-27T07:54:55.731Z,82.10
2018-05-27T07:57:23.213Z,83.30
2018-05-27T07:59:50.974Z,83.90
2018-05-27T08:02:18.751Z,81.70
2018-05-27T08:04:46.206Z,81.00
2018-05-27T08:07:13.739Z,81.10
2018-05-27T08:09:41.146Z,81.50
2018-05-27T08:12:08.800Z,82.30
2018-05-27T08:14:36.250Z,81.00
2018-05-27T08:17:03.724Z,79.40
2018-05-27T08:19:31.193Z,79.50
2018-05-27T08:21:58.651Z,80.10
2018-05-27T08:24:26.113Z,79.80
2018-05-27T08:26:53.582Z,81.20
2018-05-27T08:29:21.090Z,80.70
2018-05-27T08:31:48.848Z,79.30
2018-05-27T08:34:16.310Z,78.40
2018-05-27T08:36:43.990Z,77.60
2018-05-27T08:39:11.534Z,75.80
2018-05-27T08:41:38.997Z,75.00
2018-05-27T08:44:06.459Z,73.80
2018-05-27T08:46:34.218Z,73.10
2018-05-27T08:49:02.019Z,71.90
2018-05-27T08:51:29.769Z,69.60
2018-05-27T08:53:57.506Z,68.90
2018-05-27T08:56:25.296Z,67.60
2018-05-27T08:58:53.634Z,65.80
2018-05-27T09:01:21.223Z,65.70
2018-05-27T09:03:48.903Z,64.50
2018-05-27T09:06:16.350Z,63.70
2018-05-27T09:08:44.101Z,64.80
2018-05-27T09:11:11.571Z,63.50
2018-05-27T09:13:39.330Z,62.40
2018-05-27T09:16:06.786Z,61.30
2018-05-27T09:18:34.270Z,60.80
2018-05-27T09:21:02.013Z,60.00
2018-05-27T09:23:29.472Z,59.00
2018-05-27T09:25:57.229Z,58.10
2018-05-27T09:28:24.691Z,57.40
2018-05-27T09:30:52.521Z,57.40
2018-05-27T09:33:20.228Z,57.10
2018-05-27T09:35:48.510Z,58.00
2018-05-27T09:38:15.988Z,58.00
2018-05-27T09:40:43.452Z,58.50
2018-05-27T09:43:10.927Z,60.60
2018-05-27T09:45:38.435Z,60.90
2018-05-27T09:48:06.271Z,61.40
2018-05-27T09:50:33.760Z,59.00
2018-05-27T09:53:01.254Z,58.00
2018-05-27T09:55:28.703Z,57.10
2018-05-27T09:57:56.319Z,54.90
2018-05-27T10:00:23.913Z,53.70
2018-05-27T10:02:52.217Z,54.20
2018-05-27T10:05:20.092Z,54.00
2018-05-27T10:07:47.886Z,55.30
2018-05-27T10:10:15.445Z,55.90
2018-05-27T10:12:43.020Z,55.80
2018-05-27T10:15:10.524Z,54.70
2018-05-27T10:17:38.092Z,53.60
2018-05-27T10:20:05.764Z,51.50
2018-05-27T10:22:33.332Z,49.30
2018-05-27T10:25:00.838Z,47.90
2018-05-27T10:27:28.366Z,47.00
2018-05-27T10:29:55.894Z,46.20
2018-05-27T10:32:23.557Z,45.40
2018-05-27T10:34:51.040Z,44.20
2018-05-27T10:37:18.543Z,44.40
2018-05-27T10:39:46.819Z,46.20
2018-05-27T10:42:14.310Z,46.10
2018-05-27T10:44:42.040Z,46.40
2018-05-27T10:47:09.570Z,45.50
2018-05-27T10:49:37.118Z,45.50
2018-05-27T10:52:04.630Z,45.60
2018-05-27T10:54:32.947Z,44.60
2018-05-27T10:57:00.493Z,44.60
2018-05-27T10:59:28.025Z,44.40
2018-05-27T11:01:55.585Z,45.10
2018-05-27T11:04:23.964Z,47.10
2018-05-27T11:06:52.280Z,48.00
2018-05-27T11:09:19.843Z,47.40
2018-05-27T11:11:47.481Z,46.20
2018-05-27T11:14:15.081Z,45.70
2018-05-27T11:16:42.751Z,45.60
2018-05-27T11:19:10.295Z,45.80
2018-05-27T11:21:38.049Z,47.80
2018-05-27T11:24:05.681Z,47.90
2018-05-27T11:26:33.369Z,49.40
2018-05-27T11:29:00.893Z,50.50
2018-05-27T11:31:28.407Z,51.30
2018-05-27T11:33:55.992Z,51.70
2018-05-27T11:36:23.573Z,50.50
2018-05-27T11:38:51.232Z,51.20
2018-05-27T11:41:18.912Z,51.90
2018-05-27T11:43:46.522Z,52.80
2018-05-27T11:46:14.240Z,52.70
2018-05-27T11:48:41.920Z,52.50
2018-05-27T11:51:09.591Z,53.50
2018-05-27T11:53:37.204Z,53.00
2018-05-27T11:56:04.803Z,51.50
2018-05-27T11:58:32.361Z,52.50
2018-05-27T12:01:00.595Z,54.40
2018-05-27T12:03:28.130Z,54.40
2018-05-27T12:05:55.637Z,53.80
2018-05-27T12:08:23.414Z,54.50
2018-05-27T12:10:51.751Z,54.50
2018-05-27T12:13:19.277Z,54.50
2018-05-27T12:15:46.894Z,54.00
2018-05-27T12:18:14.450Z,55.70
2018-05-27T12:20:41.952Z,55.60
2018-05-27T12:23:09.621Z,55.70
2018-05-27T12:25:37.435Z,55.00
2018-05-27T12:28:04.934Z,55.00
2018-05-27T12:30:32.638Z,54.20
2018-05-27T12:33:00.296Z,54.10
2018-05-27T12:35:27.897Z,53.40
2018-05-27T12:37:55.474Z,52.20
2018-05-27T12:40:23.080Z,52.00
2018-05-27T12:42:50.644Z,52.90
2018-05-27T12:45:18.236Z,53.60
2018-05-27T12:47:45.859Z,53.20
2018-05-27T12:50:13.381Z,54.20
2018-05-27T12:52:41.012Z,55.30
2018-05-27T12:55:08.576Z,54.20
2018-05-27T12:57:36.811Z,53.80
2018-05-27T13:00:04.274Z,53.80
2018-05-27T13:02:31.968Z,55.00
2018-05-27T13:04:59.734Z,55.60
2018-05-27T13:07:27.418Z,54.40
2018-05-27T13:09:55.644Z,55.40
2018-05-27T13:12:23.342Z,55.40
2018-05-27T13:14:50.841Z,56.00
2018-05-27T13:17:18.560Z,56.30
2018-05-27T13:19:46.054Z,56.70
2018-05-27T13:22:13.784Z,57.80
2018-05-27T13:24:41.247Z,59.50
2018-05-27T13:27:08.719Z,60.00
2018-05-27T13:29:36.190Z,60.50
2018-05-27T13:32:03.851Z,64.00
2018-05-27T13:34:31.390Z,71.70
2018-05-27T13:36:59.151Z,78.20
2018-05-27T13:39:26.915Z,84.80
2018-05-27T13:41:54.379Z,89.00
2018-05-27T13:44:21.851Z,89.60
2018-05-27T13:46:49.374Z,91.50
2018-05-27T13:49:17.139Z,95.30
2018-05-27T13:51:44.823Z,97.70
2018-05-27T13:54:12.478Z,99.90
2018-05-27T13:56:39.945Z,99.90
2018-05-27T13:59:07.403Z,99.90
2018-05-27T14:01:34.906Z,99.90
2018-05-27T14:04:02.420Z,99.90
2018-05-27T14:06:29.889Z,99.90
2018-05-27T14:08:57.342Z,99.90
2018-05-27T14:11:24.816Z,99.90
2018-05-27T14:13:52.558Z,99.90
2018-05-27T14:16:20.011Z,99.90
2018-05-27T14:18:47.782Z,99.90
2018-05-27T14:21:16.750Z,99.90
2018-05-27T14:23:44.218Z,99.90
2018-05-27T14:26:11.679Z,99.90
2018-05-27T14:28:39.450Z,99.90
2018-05-27T14:31:07.142Z,99.90
2018-05-27T14:33:34.606Z,99.90
2018-05-27T14:36:02.844Z,99.90
2018-05-27T14:38:30.459Z,99.90
2018-05-27T14:40:57.971Z,99.90
2018-05-27T14:43:25.435Z,99.90
2018-05-27T14:45:53.198Z,99.90
2018-05-27T14:48:20.875Z,99.90
2018-05-27T14:50:48.414Z,99.90
2018-05-27T14:53:15.878Z,99.90
2018-05-27T14:55:43.640Z,99.90
2018-05-27T14:58:11.098Z,99.90
2018-05-27T15:00:39.254Z,99.90
2018-05-27T15:03:06.728Z,99.90
2018-05-27T15:05:34.188Z,99.90
2018-05-27T15:08:01.850Z,99.90
2018-05-27T15:10:29.310Z,99.90
2018-05-27T15:12:56.775Z,99.90
2018-05-27T15:15:24.538Z,99.90
2018-05-27T15:17:52.914Z,99.90
2018-05-27T15:20:20.371Z,99.90
2018-05-27T15:22:47.830Z,99.90
2018-05-27T15:25:15.350Z,99.90
2018-05-27T15:27:42.963Z,99.90
2018-05-27T15:30:10.434Z,99.90
2018-05-27T15:32:37.922Z,99.90
2018-05-27T15:35:05.402Z,99.90
2018-05-27T15:37:32.935Z,99.90
2018-05-27T15:40:00.414Z,99.90
2018-05-27T15:42:28.108Z,99.90
2018-05-27T15:44:55.874Z,99.90
2018-05-27T15:47:23.337Z,99.90
2018-05-27T15:49:50.810Z,99.90
2018-05-27T15:52:18.475Z,99.90
2018-05-27T15:54:45.932Z,99.90
2018-05-27T15:57:13.397Z,99.90
2018-05-27T15:59:41.861Z,99.90
2018-05-27T16:02:09.331Z,99.90
2018-05-27T16:04:36.785Z,99.90
2018-05-27T16:07:05.013Z,99.90
2018-05-27T16:09:32.535Z,99.90
2018-05-27T16:12:00.067Z,99.90
2018-05-27T16:14:27.534Z,99.90
2018-05-27T16:16:54.990Z,99.90
2018-05-27T16:19:22.470Z,99.90
2018-05-27T16:21:50.122Z,99.90
2018-05-27T16:24:17.574Z,99.90
2018-05-27T16:26:45.123Z,99.90
2018-05-27T16:29:12.582Z,99.90
2018-05-27T16:31:40.346Z,99.90
2018-05-27T16:34:08.107Z,99.90
2018-05-27T16:36:35.878Z,99.90
2018-05-27T16:39:03.335Z,99.90
2018-05-27T16:41:31.098Z,99.90
2018-05-27T16:43:58.638Z,99.90
2018-05-27T16:46:26.323Z,99.90
2018-05-27T16:48:53.783Z,99.90
2018-05-27T16:51:21.550Z,99.90
2018-05-27T16:53:49.310Z,99.90
2018-05-27T16:56:16.779Z,99.90
2018-05-27T16:58:44.262Z,99.90
2018-05-27T17:01:11.718Z,99.90
2018-05-27T17:03:39.605Z,99.90
2018-05-27T17:06:07.212Z,99.90
2018-05-27T17:08:34.674Z,99.90
2018-05-27T17:11:02.242Z,99.90
2018-05-27T17:13:29.892Z,99.90
2018-05-27T17:15:57.666Z,99.90
2018-05-27T17:18:25.287Z,99.90
2018-05-27T17:20:52.783Z,99.90
2018-05-27T17:23:20.293Z,99.90
2018-05-27T17:25:47.755Z,99.90
2018-05-27T17:28:15.236Z,99.90
2018-05-27T17:30:42.718Z,99.90
2018-05-27T17:33:10.491Z,99.90
2018-05-27T17:35:37.962Z,99.90
2018-05-27T17:38:05.860Z,99.90
2018-05-27T17:40:33.319Z,99.90
2018-05-27T17:43:00.786Z,99.90
2018-05-27T17:45:28.300Z,99.90
2018-05-27T17:48:07.513Z,99.90
2018-05-27T17:50:34.970Z,99.90
2018-05-27T17:53:02.438Z,99.90
2018-05-27T17:55:30.118Z,99.90
2018-05-27T17:57:57.606Z,99.90
2018-05-27T18:00:25.114Z,99.90
2018-05-27T18:02:52.805Z,99.90
2018-05-27T18:05:20.344Z,99.90
2018-05-27T18:07:47.864Z,99.90
2018-05-27T18:10:15.558Z,99.90
2018-05-27T18:12:43.018Z,99.90
2018-05-27T18:15:10.700Z,99.90
2018-05-27T18:17:38.167Z,99.90
2018-05-27T18:20:05.706Z,99.90
2018-05-27T18:22:33.375Z,99.90
2018-05-27T18:25:00.872Z,99.90
2018-05-27T18:27:28.390Z,99.90
2018-05-27T18:29:56.160Z,99.90
2018-05-27T18:32:23.630Z,99.90
2018-05-27T18:34:51.094Z,99.90
2018-05-27T18:37:18.555Z,99.90
2018-05-27T18:39:46.174Z,99.90
2018-05-27T18:42:13.649Z,99.90
2018-05-27T18:44:41.118Z,99.90
2018-05-27T18:47:08.580Z,99.90
2018-05-27T18:49:36.044Z,99.90
2018-05-27T18:52:03.510Z,99.90
2018-05-27T18:54:31.038Z,99.90
2018-05-27T18:56:58.802Z,99.90
2018-05-27T18:59:26.561Z,99.90
2018-05-27T19:01:55.558Z,99.90
2018-05-27T19:04:23.051Z,99.90
2018-05-27T19:06:50.498Z,99.90
2018-05-27T19:09:18.165Z,99.90
2018-05-27T19:11:45.698Z,99.90
2018-05-27T19:14:13.168Z,99.90
2018-05-27T19:16:40.630Z,99.90
2018-05-27T19:19:08.296Z,99.90
2018-05-27T19:21:35.757Z,99.90
2018-05-27T19:24:03.294Z,99.90
2018-05-27T19:26:32.270Z,99.90
2018-05-27T19:28:59.753Z,99.90
2018-05-27T19:31:27.523Z,99.90
2018-05-27T19:33:55.194Z,99.90
2018-05-27T19:36:22.690Z,99.90
2018-05-27T19:38:51.037Z,99.90
2018-05-27T19:41:18.495Z,99.90
2018-05-27T19:43:46.038Z,99.90
2018-05-27T19:46:13.803Z,99.90
2018-05-27T19:48:41.561Z,99.90
2018-05-27T19:51:09.242Z,99.90
2018-05-27T19:53:36.702Z,99.90
2018-05-27T19:56:04.242Z,99.90
2018-05-27T19:58:33.238Z,99.90
2018-05-27T20:01:01.057Z,99.90
2018-05-27T20:03:28.688Z,99.90
2018-05-27T20:05:56.221Z,99.90
2018-05-27T20:08:23.697Z,99.90
2018-05-27T20:10:51.371Z,99.90
2018-05-27T20:13:18.910Z,99.90
2018-05-27T20:15:47.878Z,99.90
2018-05-27T20:18:15.349Z,99.90
2018-05-27T20:20:42.817Z,99.90
2018-05-27T20:23:10.283Z,99.90
2018-05-27T20:25:39.249Z,99.90
2018-05-27T20:28:06.718Z,99.90
2018-05-27T20:30:34.503Z,99.90
2018-05-27T20:33:02.066Z,99.90
2018-05-27T20:35:29.560Z,99.90
2018-05-27T20:37:57.023Z,99.90
2018-05-27T20:40:24.947Z,99.90
2018-05-27T20:42:52.711Z,99.90
2018-05-27T20:45:21.686Z,99.90
2018-05-27T20:47:49.142Z,99.90
2018-05-27T20:50:16.622Z,99.90
2018-05-27T20:52:44.299Z,99.90
2018-05-27T20:55:11.762Z,99.90
2018-05-27T20:57:39.302Z,99.90
2018-05-27T21:00:06.772Z,99.90
2018-05-27T21:02:35.138Z,99.90
2018-05-27T21:05:02.811Z,99.90
2018-05-27T21:07:30.367Z,99.90
2018-05-27T21:09:58.050Z,99.90
2018-05-27T21:12:25.528Z,99.90
2018-05-27T21:14:53.043Z,99.90
2018-05-27T21:17:22.011Z,99.90
2018-05-27T21:19:49.482Z,99.90
2018-05-27T21:22:16.943Z,99.90
2018-05-27T21:24:44.715Z,99.90
2018-05-27T21:27:13.698Z,99.90
2018-05-27T21:29:42.211Z,99.90
2018-05-27T21:32:10.466Z,99.90
2018-05-27T21:34:39.459Z,99.90
2018-05-27T21:37:08.481Z,99.90
2018-05-27T21:39:35.919Z,99.90
2018-05-27T21:42:04.886Z,99.90
2018-05-27T21:44:32.347Z,99.90
2018-05-27T21:46:59.815Z,99.90
2018-05-27T21:49:27.289Z,99.90
2018-05-27T21:51:56.266Z,99.90
2018-05-27T21:54:23.731Z,99.90
2018-05-27T21:56:52.709Z,99.90
2018-05-27T21:59:20.501Z,99.90
2018-05-27T22:01:49.473Z,99.90
2018-05-27T22:04:16.953Z,99.90
2018-05-27T22:06:45.931Z,99.90
2018-05-27T22:09:13.395Z,99.90
2018-05-27T22:11:42.390Z,99.90
2018-05-27T22:14:11.387Z,99.90
2018-05-27T22:16:40.386Z,99.90
2018-05-27T22:19:09.367Z,99.90
2018-05-27T22:21:37.120Z,99.90
2018-05-27T22:24:05.354Z,99.90
2018-05-27T22:26:32.982Z,99.90
2018-05-27T22:29:00.677Z,99.90
2018-05-27T22:31:28.135Z,99.90
2018-05-27T22:33:55.604Z,99.90
2018-05-27T22:36:23.077Z,99.90
2018-05-27T22:38:50.540Z,99.90
2018-05-27T22:41:18.037Z,99.90
2018-05-27T22:43:46.339Z,99.90
2018-05-27T22:46:13.799Z,99.90
2018-05-27T22:48:41.334Z,99.90
2018-05-27T22:51:09.100Z,99.90
2018-05-27T22:53:38.075Z,99.90
2018-05-27T22:56:05.547Z,99.90
2018-05-27T22:58:34.547Z,99.90
2018-05-27T23:01:03.541Z,99.90
2018-05-27T23:03:31.299Z,99.90
2018-05-27T23:06:00.297Z,99.90
2018-05-27T23:08:29.271Z,99.90
2018-05-27T23:10:56.743Z,99.90
2018-05-27T23:13:24.202Z,99.90
2018-05-27T23:15:53.178Z,99.90
2018-05-27T23:18:20.657Z,99.90
2018-05-27T23:20:48.120Z,99.90
2018-05-27T23:23:16.354Z,99.90
2018-05-27T23:25:43.950Z,99.90
2018-05-27T23:28:12.925Z,99.90
2018-05-27T23:30:40.405Z,99.90
2018-05-27T23:33:09.401Z,99.90
2018-05-27T23:35:38.377Z,99.90
2018-05-27T23:38:06.158Z,99.90
2018-05-27T23:40:35.130Z,99.90
2018-05-27T23:43:02.616Z,99.90
2018-05-27T23:45:31.616Z,99.90
2018-05-27T23:47:59.237Z,99.90
2018-05-27T23:50:26.747Z,99.90
2018-05-27T23:52:54.207Z,99.90
2018-05-27T23:55:21.688Z,99.90
2018-05-27T23:57:49.146Z,99.90
